createdAt,value
2018-11-26T00:02:04.056Z,100334.84
2018-11-26T00:04:30.048Z,100326.43
2018-11-26T00:06:55.999Z,100327.25
2018-11-26T00:09:21.952Z,100325.94
2018-11-26T00:11:47.930Z,100327.57
2018-11-26T00:14:13.897Z,100328.56
2018-11-26T00:16:39.861Z,100323.44
2018-11-26T00:19:05.817Z,100323.58
2018-11-26T00:21:31.828Z,100321.94
2018-11-26T00:23:57.795Z,100325.25
2018-11-26T00:26:23.744Z,100329.53
2018-11-26T00:28:49.707Z,100327.89
2018-11-26T00:31:15.687Z,100326.71
2018-11-26T00:33:41.649Z,100323.11
2018-11-26T00:36:07.625Z,100322.61
2018-11-26T00:38:33.585Z,100321.30
2018-11-26T00:40:59.568Z,100320.80
2018-11-26T00:43:25.541Z,100320.30
2018-11-26T00:45:51.489Z,100323.30
2018-11-26T00:48:17.444Z,100324.25
2018-11-26T00:50:43.400Z,100312.88
2018-11-26T00:53:09.364Z,100317.19
2018-11-26T00:55:35.312Z,100316.98
2018-11-26T00:58:01.277Z,100310.06
2018-11-26T01:00:27.222Z,100307.11
2018-11-26T01:02:53.184Z,100305.28
2018-11-26T01:05:19.234Z,100307.92
2018-11-26T01:07:45.192Z,100303.78
2018-11-26T01:10:11.148Z,100298.02
2018-11-26T01:12:37.112Z,100304.61
2018-11-26T01:15:03.078Z,100305.25
2018-11-26T01:17:29.046Z,100302.61
2018-11-26T01:19:55.000Z,100310.38
2018-11-26T01:22:21.024Z,100307.39
2018-11-26T01:24:46.972Z,100310.38
2018-11-26T01:27:12.934Z,100307.75
2018-11-26T01:29:38.871Z,100305.92
2018-11-26T01:32:04.815Z,100310.88
2018-11-26T01:34:30.755Z,100308.24
2018-11-26T01:36:56.739Z,100313.84
2018-11-26T01:39:22.704Z,100310.70
2018-11-26T01:41:48.761Z,100312.02
2018-11-26T01:44:14.781Z,100311.84
2018-11-26T01:46:40.741Z,100320.25
2018-11-26T01:49:06.689Z,100314.48
2018-11-26T01:51:32.660Z,100311.52
2018-11-26T01:53:58.611Z,100313.66
2018-11-26T01:56:24.575Z,100312.48
2018-11-26T01:58:50.548Z,100314.66
2018-11-26T02:01:16.604Z,100316.44
2018-11-26T02:03:42.596Z,100320.22
2018-11-26T02:06:08.571Z,100323.88
2018-11-26T02:08:34.528Z,100321.25
2018-11-26T02:11:00.521Z,100326.70
2018-11-26T02:13:26.468Z,100323.39
2018-11-26T02:15:52.429Z,100324.08
2018-11-26T02:18:18.380Z,100318.30
2018-11-26T02:20:44.332Z,100318.16
2018-11-26T02:23:10.332Z,100320.80
2018-11-26T02:25:36.317Z,100317.66
2018-11-26T02:28:02.338Z,100318.98
2018-11-26T02:30:28.296Z,100315.88
2018-11-26T02:32:54.258Z,100321.47
2018-11-26T02:35:20.197Z,100313.56
2018-11-26T02:37:46.188Z,100312.38
2018-11-26T02:40:12.168Z,100316.84
2018-11-26T02:42:38.113Z,100314.70
2018-11-26T02:45:04.072Z,100312.84
2018-11-26T02:47:30.026Z,100313.66
2018-11-26T02:49:55.994Z,100314.44
2018-11-26T02:52:21.945Z,100314.13
2018-11-26T02:54:47.905Z,100315.26
2018-11-26T02:57:13.874Z,100306.66
2018-11-26T02:59:39.868Z,100311.62
2018-11-26T03:02:05.877Z,100311.80
2018-11-26T03:04:31.828Z,100314.44
2018-11-26T03:06:57.781Z,100315.77
2018-11-26T03:09:23.712Z,100317.08
2018-11-26T03:11:49.687Z,100312.48
2018-11-26T03:14:15.665Z,100315.94
2018-11-26T03:16:41.633Z,100311.98
2018-11-26T03:19:07.720Z,100314.62
2018-11-26T03:21:33.697Z,100309.48
2018-11-26T03:23:59.651Z,100308.52
2018-11-26T03:26:25.631Z,100310.98
2018-11-26T03:28:51.592Z,100307.85
2018-11-26T03:31:17.554Z,100306.74
2018-11-26T03:33:43.519Z,100312.34
2018-11-26T03:36:09.462Z,100312.84
2018-11-26T03:38:35.434Z,100315.97
2018-11-26T03:41:01.377Z,100313.66
2018-11-26T03:43:27.355Z,100316.97
2018-11-26T03:45:53.304Z,100321.61
2018-11-26T03:48:19.259Z,100327.21
2018-11-26T03:50:45.225Z,100325.89
2018-11-26T03:53:11.169Z,100324.89
2018-11-26T03:55:37.134Z,100329.88
2018-11-26T03:58:03.072Z,100325.89
2018-11-26T04:00:29.025Z,100327.89
2018-11-26T04:02:54.978Z,100333.66
2018-11-26T04:05:21.012Z,100324.89
2018-11-26T04:07:46.969Z,100329.70
2018-11-26T04:10:12.926Z,100331.02
2018-11-26T04:12:38.975Z,100324.25
2018-11-26T04:15:04.943Z,100326.42
2018-11-26T04:17:30.891Z,100327.08
2018-11-26T04:19:56.845Z,100317.66
2018-11-26T04:22:22.811Z,100319.33
2018-11-26T04:24:48.771Z,100319.83
2018-11-26T04:27:14.725Z,100321.97
2018-11-26T04:29:40.709Z,100322.30
2018-11-26T04:32:06.656Z,100324.61
2018-11-26T04:34:32.613Z,100326.25
2018-11-26T04:36:58.882Z,100325.11
2018-11-26T04:39:24.544Z,100325.11
2018-11-26T04:41:50.481Z,100318.87
2018-11-26T04:44:16.443Z,100322.33
2018-11-26T04:46:42.400Z,100319.34
2018-11-26T04:49:08.380Z,100319.02
2018-11-26T04:51:35.242Z,100309.46
2018-11-26T04:54:01.281Z,100307.14
2018-11-26T04:56:27.221Z,100310.78
2018-11-26T04:58:53.173Z,100305.97
2018-11-26T05:01:19.155Z,100302.86
2018-11-26T05:03:45.107Z,100303.69
2018-11-26T05:06:11.116Z,100303.83
2018-11-26T05:08:37.136Z,100307.11
2018-11-26T05:11:03.164Z,100307.47
2018-11-26T05:13:29.195Z,100305.50
2018-11-26T05:15:55.144Z,100309.92
2018-11-26T05:18:21.717Z,100311.92
2018-11-26T05:20:47.681Z,100306.15
2018-11-26T05:23:13.634Z,100308.32
2018-11-26T05:25:39.632Z,100308.50
2018-11-26T05:28:05.704Z,100308.50
2018-11-26T05:30:31.653Z,100303.22
2018-11-26T05:32:57.613Z,100303.05
2018-11-26T05:35:23.563Z,100304.54
2018-11-26T05:37:49.524Z,100301.73
2018-11-26T05:40:15.499Z,100302.55
2018-11-26T05:42:41.448Z,100303.19
2018-11-26T05:45:07.398Z,100310.61
2018-11-26T05:47:33.365Z,100310.61
2018-11-26T05:49:59.324Z,100314.56
2018-11-26T05:52:25.277Z,100310.95
2018-11-26T05:54:51.280Z,100308.78
2018-11-26T05:57:17.314Z,100307.14
2018-11-26T05:59:43.267Z,100307.14
2018-11-26T06:02:09.225Z,100308.47
2018-11-26T06:04:35.165Z,100311.60
2018-11-26T06:07:01.108Z,100312.24
2018-11-26T06:09:27.066Z,100312.42
2018-11-26T06:11:53.011Z,100310.28
2018-11-26T06:14:18.963Z,100313.77
2018-11-26T06:16:45.807Z,100316.73
2018-11-26T06:19:10.900Z,100317.23
2018-11-26T06:21:36.861Z,100319.05
2018-11-26T06:24:02.932Z,100320.84
2018-11-26T06:26:28.904Z,100320.84
2018-11-26T06:28:54.890Z,100326.11
2018-11-26T06:31:20.970Z,100326.11
2018-11-26T06:33:46.918Z,100325.79
2018-11-26T06:36:12.868Z,100334.20
2018-11-26T06:38:38.913Z,100342.11
2018-11-26T06:41:04.862Z,100342.11
2018-11-26T06:43:30.833Z,100348.53
2018-11-26T06:45:56.795Z,100347.22
2018-11-26T06:48:22.776Z,100350.35
2018-11-26T06:50:48.740Z,100363.05
2018-11-26T06:53:14.747Z,100362.39
2018-11-26T06:55:40.713Z,100361.08
2018-11-26T06:58:06.679Z,100364.04
2018-11-26T07:00:32.659Z,100366.86
2018-11-26T07:02:58.717Z,100371.64
2018-11-26T07:05:24.680Z,100369.36
2018-11-26T07:07:50.654Z,100368.86
2018-11-26T07:10:16.608Z,100373.45
2018-11-26T07:12:42.549Z,100371.95
2018-11-26T07:15:08.494Z,100372.14
2018-11-26T07:17:34.484Z,100376.09
2018-11-26T07:20:00.449Z,100372.45
2018-11-26T07:22:26.428Z,100375.77
2018-11-26T07:24:52.376Z,100374.28
2018-11-26T07:27:18.343Z,100380.05
2018-11-26T07:29:44.288Z,100379.72
2018-11-26T07:32:10.353Z,100388.28
2018-11-26T07:34:36.303Z,100388.28
2018-11-26T07:37:02.253Z,100388.64
2018-11-26T07:39:28.203Z,100391.28
2018-11-26T07:41:54.173Z,100394.06
2018-11-26T07:44:20.131Z,100398.70
2018-11-26T07:46:46.097Z,100404.02
2018-11-26T07:49:12.113Z,100408.30
2018-11-26T07:51:38.126Z,100408.16
2018-11-26T07:54:04.151Z,100407.80
2018-11-26T07:56:30.106Z,100403.20
2018-11-26T07:58:56.086Z,100411.25
2018-11-26T08:01:22.255Z,100410.75
2018-11-26T08:03:48.274Z,100412.56
2018-11-26T08:06:14.299Z,100418.34
2018-11-26T08:08:40.249Z,100418.67
2018-11-26T08:11:06.243Z,100423.13
2018-11-26T08:13:32.202Z,100422.63
2018-11-26T08:15:58.173Z,100427.22
2018-11-26T08:18:24.151Z,100430.54
2018-11-26T08:20:50.110Z,100429.53
2018-11-26T08:23:16.065Z,100432.36
2018-11-26T08:25:42.124Z,100436.31
2018-11-26T08:28:08.069Z,100438.45
2018-11-26T08:30:34.020Z,100441.09
2018-11-26T08:33:00.032Z,100440.13
2018-11-26T08:35:25.981Z,100441.27
2018-11-26T08:37:51.948Z,100444.73
2018-11-26T08:40:17.912Z,100446.05
2018-11-26T08:42:43.864Z,100450.02
2018-11-26T08:45:09.808Z,100452.33
2018-11-26T08:47:35.820Z,100462.07
2018-11-26T08:50:01.766Z,100460.29
2018-11-26T08:52:27.723Z,100469.02
2018-11-26T08:54:53.689Z,100472.16
2018-11-26T08:57:19.639Z,100469.66
2018-11-26T08:59:45.602Z,100470.48
2018-11-26T09:02:11.549Z,100473.95
2018-11-26T09:04:37.508Z,100479.22
2018-11-26T09:07:03.492Z,100477.08
2018-11-26T09:09:32.918Z,100478.75
2018-11-26T09:11:55.423Z,100484.50
2018-11-26T09:14:21.396Z,100490.13
2018-11-26T09:16:47.368Z,100486.31
2018-11-26T09:19:13.320Z,100497.05
2018-11-26T09:21:39.275Z,100498.73
2018-11-26T09:24:05.252Z,100503.20
2018-11-26T09:26:31.214Z,100508.48
2018-11-26T09:28:57.186Z,100510.63
2018-11-26T09:31:23.157Z,100512.30
2018-11-26T09:33:49.115Z,100514.25
2018-11-26T09:36:15.120Z,100517.39
2018-11-26T09:38:41.074Z,100515.57
2018-11-26T09:41:07.022Z,100516.89
2018-11-26T09:43:32.981Z,100513.61
2018-11-26T09:45:58.928Z,100516.25
2018-11-26T09:48:24.916Z,100517.71
2018-11-26T09:50:50.944Z,100518.53
2018-11-26T09:53:16.991Z,100518.21
2018-11-26T09:55:42.941Z,100519.20
2018-11-26T09:58:08.900Z,100523.16
2018-11-26T10:00:34.853Z,100520.52
2018-11-26T10:03:00.937Z,100525.30
2018-11-26T10:05:26.881Z,100528.91
2018-11-26T10:07:52.862Z,100527.45
2018-11-26T10:10:18.819Z,100523.53
2018-11-26T10:12:44.784Z,100528.13
2018-11-26T10:15:10.759Z,100523.67
2018-11-26T10:17:36.716Z,100522.22
2018-11-26T10:20:02.689Z,100524.99
2018-11-26T10:22:28.641Z,100528.63
2018-11-26T10:24:54.623Z,100525.63
2018-11-26T10:27:20.577Z,100527.77
2018-11-26T10:29:46.544Z,100527.77
2018-11-26T10:32:12.515Z,100526.62
2018-11-26T10:34:38.465Z,100527.94
2018-11-26T10:37:04.428Z,100523.98
2018-11-26T10:39:30.462Z,100523.16
2018-11-26T10:41:56.480Z,100519.20
2018-11-26T10:44:22.629Z,100518.84
2018-11-26T10:46:48.610Z,100517.70
2018-11-26T10:49:14.556Z,100524.48
2018-11-26T10:51:40.543Z,100519.67
2018-11-26T10:54:06.506Z,100519.67
2018-11-26T10:56:32.445Z,100526.95
2018-11-26T10:58:58.396Z,100528.95
2018-11-26T11:01:24.351Z,100524.36
2018-11-26T11:03:50.313Z,100536.56
2018-11-26T11:06:16.283Z,100533.92
2018-11-26T11:08:42.253Z,100526.36
2018-11-26T11:11:08.274Z,100525.36
2018-11-26T11:13:34.222Z,100523.55
2018-11-26T11:16:00.281Z,100524.40
2018-11-26T11:18:26.233Z,100536.79
2018-11-26T11:20:52.229Z,100531.52
2018-11-26T11:23:18.204Z,100532.69
2018-11-26T11:25:44.186Z,100538.30
2018-11-26T11:28:10.162Z,100543.90
2018-11-26T11:30:36.176Z,100541.61
2018-11-26T11:35:27.319Z,100538.98
2018-11-26T11:37:53.299Z,100540.98
2018-11-26T11:40:19.259Z,100544.94
2018-11-26T11:42:45.216Z,100540.34
2018-11-26T11:45:11.204Z,100537.38
2018-11-26T11:47:37.169Z,100539.39
2018-11-26T11:50:03.121Z,100535.61
2018-11-26T11:52:29.084Z,100536.44
2018-11-26T11:54:55.049Z,100536.93
2018-11-26T11:57:21.011Z,100532.12
2018-11-26T11:59:47.066Z,100529.65
2018-11-26T12:02:16.058Z,100530.43
2018-11-26T12:04:39.150Z,100534.06
2018-11-26T12:07:05.103Z,100527.23
2018-11-26T12:09:31.066Z,100530.88
2018-11-26T12:11:57.033Z,100534.02
2018-11-26T12:14:22.987Z,100529.05
2018-11-26T12:16:48.950Z,100530.19
2018-11-26T12:19:14.914Z,100533.83
2018-11-26T12:21:40.874Z,100530.00
2018-11-26T12:24:06.835Z,100532.78
2018-11-26T12:26:32.785Z,100533.78
2018-11-26T12:28:58.741Z,100535.42
2018-11-26T12:31:24.708Z,100541.38
2018-11-26T12:33:50.672Z,100531.33
2018-11-26T12:36:16.639Z,100531.47
2018-11-26T12:38:42.697Z,100526.69
2018-11-26T12:41:08.643Z,100539.06
2018-11-26T12:43:34.600Z,100540.38
2018-11-26T12:46:00.654Z,100531.47
2018-11-26T12:48:26.726Z,100534.28
2018-11-26T12:50:52.681Z,100535.59
2018-11-26T12:53:18.725Z,100540.88
2018-11-26T12:55:44.696Z,100539.06
2018-11-26T12:58:10.645Z,100534.73
2018-11-26T13:00:36.661Z,100536.56
2018-11-26T13:03:02.623Z,100538.87
2018-11-26T13:05:28.613Z,100529.95
2018-11-26T13:07:54.656Z,100528.31
2018-11-26T13:10:20.617Z,100526.17
2018-11-26T13:12:46.611Z,100532.41
2018-11-26T13:15:12.637Z,100524.99
2018-11-26T13:17:38.592Z,100525.04
2018-11-26T13:20:04.546Z,100524.87
2018-11-26T13:22:30.500Z,100519.13
2018-11-26T13:24:56.694Z,100524.40
2018-11-26T13:27:22.653Z,100527.04
2018-11-26T13:29:48.619Z,100528.83
2018-11-26T13:32:14.649Z,100526.00
2018-11-26T13:34:40.631Z,100530.45
2018-11-26T13:37:06.683Z,100527.00
2018-11-26T13:39:32.640Z,100535.73
2018-11-26T13:41:58.608Z,100542.33
2018-11-26T13:44:24.559Z,100538.05
2018-11-26T13:46:50.534Z,100540.19
2018-11-26T13:49:16.494Z,100545.47
2018-11-26T13:51:42.465Z,100549.92
2018-11-26T13:54:08.424Z,100548.11
2018-11-26T13:56:34.518Z,100555.03
2018-11-26T13:59:01.586Z,100550.11
2018-11-26T14:01:27.549Z,100549.26
2018-11-26T14:03:53.505Z,100552.75
2018-11-26T14:06:19.493Z,100549.12
2018-11-26T14:08:45.459Z,100555.22
2018-11-26T14:11:11.438Z,100554.20
2018-11-26T14:13:37.389Z,100556.84
2018-11-26T14:16:03.376Z,100558.66
2018-11-26T14:18:29.510Z,100565.76
2018-11-26T14:20:55.514Z,100562.77
2018-11-26T14:23:21.479Z,100564.58
2018-11-26T14:25:47.443Z,100568.73
2018-11-26T14:28:13.436Z,100572.55
2018-11-26T14:30:39.400Z,100574.69
2018-11-26T14:33:05.379Z,100578.15
2018-11-26T14:35:31.332Z,100571.41
2018-11-26T14:37:57.292Z,100574.56
2018-11-26T14:40:23.275Z,100581.34
2018-11-26T14:42:49.270Z,100579.20
2018-11-26T14:45:15.294Z,100579.89
2018-11-26T14:47:41.254Z,100575.76
2018-11-26T14:50:07.338Z,100580.27
2018-11-26T14:52:33.442Z,100582.09
2018-11-26T14:54:59.440Z,100584.09
2018-11-26T14:57:25.413Z,100587.91
2018-11-26T14:59:51.531Z,100588.10
2018-11-26T15:02:17.495Z,100582.33
2018-11-26T15:04:43.448Z,100586.14
2018-11-26T15:07:09.454Z,100585.31
2018-11-26T15:09:35.411Z,100587.79
2018-11-26T15:12:01.369Z,100586.14
2018-11-26T15:14:27.336Z,100589.75
2018-11-26T15:16:53.320Z,100592.56
2018-11-26T15:19:19.236Z,100594.16
2018-11-26T15:21:45.261Z,100604.07
2018-11-26T15:24:11.304Z,100608.99
2018-11-26T15:26:37.267Z,100607.84
2018-11-26T15:29:03.213Z,100606.47
2018-11-26T15:31:29.191Z,100611.26
2018-11-26T15:33:55.156Z,100611.89
2018-11-26T15:36:21.116Z,100609.25
2018-11-26T15:38:47.076Z,100606.12
2018-11-26T15:41:13.032Z,100607.16
2018-11-26T15:43:39.027Z,100611.94
2018-11-26T15:46:05.005Z,100619.67
2018-11-26T15:48:31.036Z,100622.12
2018-11-26T15:50:56.999Z,100623.94
2018-11-26T15:53:22.957Z,100617.16
2018-11-26T15:55:49.007Z,100621.75
2018-11-26T15:58:15.002Z,100628.34
2018-11-26T16:00:40.994Z,100625.84
2018-11-26T16:03:06.954Z,100621.70
2018-11-26T16:05:32.939Z,100624.34
2018-11-26T16:07:59.005Z,100630.44
2018-11-26T16:10:24.954Z,100624.34
2018-11-26T16:12:51.032Z,100629.75
2018-11-26T16:15:17.035Z,100632.25
2018-11-26T16:17:43.227Z,100631.30
2018-11-26T16:20:09.198Z,100635.91
2018-11-26T16:22:35.163Z,100636.95
2018-11-26T16:25:01.147Z,100641.56
2018-11-26T16:27:27.246Z,100640.11
2018-11-26T16:29:53.232Z,100641.28
2018-11-26T16:32:19.207Z,100643.92
2018-11-26T16:34:45.171Z,100649.89
2018-11-26T16:37:11.138Z,100648.41
2018-11-26T16:39:37.138Z,100641.97
2018-11-26T16:42:03.137Z,100650.55
2018-11-26T16:44:29.204Z,100651.54
2018-11-26T16:46:55.234Z,100656.49
2018-11-26T16:49:21.244Z,100655.63
2018-11-26T16:51:47.207Z,100654.81
2018-11-26T16:54:13.164Z,100657.13
2018-11-26T16:56:39.106Z,100657.59
2018-11-26T16:59:05.075Z,100663.04
2018-11-26T17:01:31.042Z,100662.55
2018-11-26T17:03:56.990Z,100668.31
2018-11-26T17:06:22.958Z,100668.81
2018-11-26T17:08:48.912Z,100674.42
2018-11-26T17:11:14.868Z,100675.41
2018-11-26T17:13:40.933Z,100677.56
2018-11-26T17:16:07.776Z,100679.89
2018-11-26T17:18:32.912Z,100683.52
2018-11-26T17:20:58.901Z,100681.34
2018-11-26T17:23:24.855Z,100688.94
2018-11-26T17:25:50.823Z,100693.40
2018-11-26T17:28:16.805Z,100691.39
2018-11-26T17:30:42.824Z,100694.85
2018-11-26T17:33:08.858Z,100695.67
2018-11-26T17:35:34.832Z,100695.98
2018-11-26T17:38:00.802Z,100697.66
2018-11-26T17:40:26.778Z,100702.94
2018-11-26T17:42:52.772Z,100702.44
2018-11-26T17:45:18.753Z,100703.27
2018-11-26T17:47:44.714Z,100706.73
2018-11-26T17:50:10.687Z,100715.01
2018-11-26T17:52:36.637Z,100716.33
2018-11-26T17:55:02.597Z,100719.92
2018-11-26T17:57:28.563Z,100726.53
2018-11-26T17:59:54.536Z,100726.39
2018-11-26T18:02:20.622Z,100728.41
2018-11-26T18:04:46.582Z,100728.23
2018-11-26T18:07:12.558Z,100731.37
2018-11-26T18:09:38.525Z,100734.50
2018-11-26T18:12:04.508Z,100742.29
2018-11-26T18:14:30.478Z,100741.30
2018-11-26T18:16:56.444Z,100744.43
2018-11-26T18:19:22.406Z,100747.34
2018-11-26T18:21:48.410Z,100748.33
2018-11-26T18:24:14.361Z,100747.52
2018-11-26T18:26:40.332Z,100751.80
2018-11-26T18:29:06.281Z,100751.11
2018-11-26T18:31:32.260Z,100748.33
2018-11-26T18:33:58.228Z,100755.95
2018-11-26T18:36:24.198Z,100758.40
2018-11-26T18:38:50.208Z,100760.91
2018-11-26T18:41:16.191Z,100766.05
2018-11-26T18:43:42.237Z,100765.39
2018-11-26T18:46:08.222Z,100765.39
2018-11-26T18:48:34.230Z,100775.67
2018-11-26T18:51:00.198Z,100780.10
2018-11-26T18:53:26.164Z,100777.46
2018-11-26T18:55:52.218Z,100782.61
2018-11-26T18:58:18.176Z,100788.58
2018-11-26T19:00:44.148Z,100785.94
2018-11-26T19:03:10.133Z,100787.58
2018-11-26T19:05:36.218Z,100784.94
2018-11-26T19:08:02.262Z,100797.19
2018-11-26T19:10:28.298Z,100797.52
2018-11-26T19:12:54.311Z,100795.86
2018-11-26T19:15:20.269Z,100797.81
2018-11-26T19:17:46.292Z,100802.11
2018-11-26T19:20:12.291Z,100806.23
2018-11-26T19:22:38.268Z,100811.84
2018-11-26T19:25:04.370Z,100812.47
2018-11-26T19:27:30.329Z,100810.33
2018-11-26T19:29:56.287Z,100809.83
2018-11-26T19:32:22.649Z,100813.27
2018-11-26T19:34:48.231Z,100821.88
2018-11-26T19:37:14.221Z,100822.20
2018-11-26T19:39:40.319Z,100828.48
2018-11-26T19:42:06.403Z,100827.16
2018-11-26T19:44:33.404Z,100836.40
2018-11-26T19:46:59.421Z,100830.63
2018-11-26T19:49:25.396Z,100828.61
2018-11-26T19:51:51.370Z,100837.36
2018-11-26T19:54:17.364Z,100842.64
2018-11-26T19:56:43.327Z,100843.95
2018-11-26T19:59:09.299Z,100837.36
2018-11-26T20:01:35.302Z,100847.59
2018-11-26T20:04:01.344Z,100838.98
2018-11-26T20:06:27.318Z,100846.90
2018-11-26T20:08:53.332Z,100851.35
2018-11-26T20:11:19.363Z,100850.53
2018-11-26T20:13:45.394Z,100853.44
2018-11-26T20:16:11.358Z,100863.73
2018-11-26T20:18:37.412Z,100861.84
2018-11-26T20:21:03.482Z,100867.82
2018-11-26T20:23:29.522Z,100871.98
2018-11-26T20:25:55.489Z,100875.61
2018-11-26T20:28:21.514Z,100879.07
2018-11-26T20:30:47.559Z,100882.54
2018-11-26T20:33:13.502Z,100877.75
2018-11-26T20:35:39.476Z,100878.25
2018-11-26T20:38:05.447Z,100875.61
2018-11-26T20:40:31.459Z,100882.05
2018-11-26T20:42:57.501Z,100885.67
2018-11-26T20:45:23.470Z,100893.59
2018-11-26T20:47:49.442Z,100896.50
2018-11-26T20:50:15.409Z,100894.84
2018-11-26T20:52:41.613Z,100898.80
2018-11-26T20:55:07.651Z,100899.14
2018-11-26T20:57:33.611Z,100902.64
2018-11-26T20:59:59.579Z,100904.78
2018-11-26T21:02:25.574Z,100902.64
2018-11-26T21:04:51.545Z,100905.27
2018-11-26T21:07:17.513Z,100903.33
2018-11-26T21:09:43.492Z,100907.48
2018-11-26T21:12:09.477Z,100906.50
2018-11-26T21:14:35.445Z,100911.15
2018-11-26T21:17:01.472Z,100897.78
2018-11-26T21:19:27.423Z,100900.42
2018-11-26T21:21:53.650Z,100910.86
2018-11-26T21:24:19.702Z,100912.67
2018-11-26T21:26:45.845Z,100913.99
2018-11-26T21:29:11.833Z,100916.97
2018-11-26T21:31:37.813Z,100912.88
2018-11-26T21:34:03.782Z,100910.36
2018-11-26T21:36:29.751Z,100910.98
2018-11-26T21:38:55.748Z,100917.59
2018-11-26T21:41:21.740Z,100917.12
2018-11-26T21:43:47.727Z,100922.88
2018-11-26T21:46:13.708Z,100922.88
2018-11-26T21:48:39.665Z,100919.90
2018-11-26T21:51:05.818Z,100921.71
2018-11-26T21:53:31.787Z,100930.46
2018-11-26T21:55:57.856Z,100931.78
2018-11-26T21:58:23.835Z,100929.27
2018-11-26T22:00:49.824Z,100933.23
2018-11-26T22:03:15.841Z,100933.20
2018-11-26T22:05:41.815Z,100938.67
2018-11-26T22:08:07.837Z,100930.39
2018-11-26T22:10:33.821Z,100933.20
2018-11-26T22:12:59.794Z,100940.62
2018-11-26T22:15:25.887Z,100936.79
2018-11-26T22:17:51.905Z,100941.38
2018-11-26T22:20:17.854Z,100939.86
2018-11-26T22:22:43.826Z,100939.19
2018-11-26T22:25:09.802Z,100948.56
2018-11-26T22:27:35.830Z,100952.03
2018-11-26T22:30:01.798Z,100955.29
2018-11-26T22:32:27.763Z,100958.42
2018-11-26T22:34:53.713Z,100954.13
2018-11-26T22:37:19.667Z,100962.67
2018-11-26T22:39:45.614Z,100962.31
2018-11-26T22:42:11.583Z,100963.17
2018-11-26T22:44:37.630Z,100967.33
2018-11-26T22:47:03.669Z,100973.23
2018-11-26T22:49:29.822Z,100975.87
2018-11-26T22:51:55.785Z,100981.98
2018-11-26T22:54:21.742Z,100981.48
2018-11-26T22:56:47.718Z,100978.64
2018-11-26T22:59:13.698Z,100986.06
2018-11-26T23:01:39.674Z,100982.59
2018-11-26T23:04:05.634Z,100985.23
2018-11-26T23:06:31.662Z,100988.50
2018-11-26T23:08:57.621Z,100994.27
2018-11-26T23:11:23.607Z,100986.52
2018-11-26T23:13:49.578Z,100990.27
2018-11-26T23:16:15.541Z,100993.37
2018-11-26T23:18:41.663Z,100988.59
2018-11-26T23:21:07.905Z,100990.06
2018-11-26T23:23:33.865Z,100991.02
2018-11-26T23:25:59.891Z,100993.66
2018-11-26T23:28:26.694Z,100997.62
2018-11-26T23:30:52.661Z,100998.94
2018-11-26T23:33:18.605Z,101002.89
2018-11-26T23:35:44.590Z,101005.33
2018-11-26T23:38:10.666Z,101006.03
2018-11-26T23:40:36.704Z,101008.53
2018-11-26T23:43:02.680Z,101008.38
2018-11-26T23:45:28.626Z,101001.29
2018-11-26T23:47:54.691Z,101007.63
2018-11-26T23:50:20.647Z,101006.64
2018-11-26T23:52:46.749Z,101009.28
2018-11-26T23:55:12.939Z,101009.28
2018-11-26T23:57:38.982Z,101016.09
